Huvudsida
METAR-TAF:

METAR-TAF

Flygplatser :

Chongqing, Kina

Chongqing Jiangbei International Airport

latitud: 29-31N, longitud: 106-29E, höjd: 351 m

Aktuellt väderrapport

Denna rapport gjordes för 1 timme och 5 minuter sedan, klockan 00:00 UTC
Vind 4 kt från ost/sydost, varierande mellan ost/nordost och sydost
Temperatur 16°C
Fuktighet 100%
Tryck 1015 hPa
Sikt: 1700 m
Få moln på en höjd av 300 ft
Spridda moln på en höjd av 1000 ft
Mulet på en höjd av 4000 ft
lätt regn, fuktdis

METAR: ZUCK 250000Z 11002MPS 070V130 1700 -RA BR FEW003 SCT010 OVC040 16/16 Q1015 BECMG TL0140 3000

Tid: 09:05 (01:05 UTC)

Väderprognos

Denna rapport gjordes för 6 timmar och 1 minuter sedan, klockan 19:04 UTC
Prognos gäller från 25 kl. 00 UTC till 25 kl. 24 UTC
Vind 6 kt från nordost
Sikt: 6000 m
Spridda moln på en höjd av 2000 ft
Mulet på en höjd av 5000 ft
Temporärt
från 25 kl. 00 UTC till 25 kl. 05 UTC
lätt regn

TAF: ZUCK 241904Z 2500/2524 04003MPS 6000 SCT020 OVC050 TX19/2507Z TN16/2522Z TEMPO 2500/2505 -RA

Aktuella väderrapporter och prognoser från 4000 flygplatser (METAR- och TAF-rapporter).

De tillgängliga stationerna syns som gula och röda prickar på kartan.

För musen över prickarna för att se namnen på stationerna.

Klicka sedan för att få väderrapporter och prognoser.

För att ändra kartan: Klicka på de gröna knapparna med ett svart kors på för att zooma in; den gröna knappen med ett streck på för att zooma ut; eller på de gröna pilarna för angränsande kartor.


METAR-TAF: